createdAt,value
2022-10-21T00:00:25.091Z,13.10
2022-10-21T00:02:52.664Z,7.78
2022-10-21T00:05:20.159Z,14.73
2022-10-21T00:07:47.729Z,9.38
2022-10-21T00:10:16.938Z,8.75
2022-10-21T00:12:44.496Z,11.40
2022-10-21T00:15:12.373Z,7.68
2022-10-21T00:17:40.970Z,8.70
2022-10-21T00:20:10.407Z,14.02
2022-10-21T00:22:38.126Z,11.63
2022-10-21T00:25:06.694Z,13.93
2022-10-21T00:27:36.016Z,11.57
2022-10-21T00:30:04.058Z,10.63
2022-10-21T00:32:31.663Z,8.90
2022-10-21T00:34:59.155Z,8.48
2022-10-21T00:37:26.746Z,8.85
2022-10-21T00:39:54.346Z,9.75
2022-10-21T00:42:22.799Z,10.70
2022-10-21T00:45:25.110Z,10.75
2022-10-21T00:47:54.323Z,12.10
2022-10-21T00:50:28.633Z,11.70
2022-10-21T00:52:56.473Z,13.73
2022-10-21T00:55:24.177Z,14.43
2022-10-21T00:57:51.643Z,11.80
2022-10-21T01:00:20.657Z,13.55
2022-10-21T01:02:48.038Z,12.10
2022-10-21T01:05:15.452Z,8.25
2022-10-21T01:07:43.137Z,9.18
2022-10-21T01:10:10.934Z,13.18
2022-10-21T01:12:43.936Z,11.10
2022-10-21T01:15:14.203Z,11.03
2022-10-21T01:17:47.993Z,9.98
2022-10-21T01:20:48.781Z,10.98
2022-10-21T01:23:38.037Z,14.85
2022-10-21T01:26:22.650Z,10.82
2022-10-21T01:28:55.817Z,11.35
2022-10-21T01:31:26.993Z,11.23
2022-10-21T01:33:54.696Z,12.57
2022-10-21T01:36:29.245Z,10.65
2022-10-21T01:39:03.391Z,14.15
2022-10-21T01:41:34.196Z,13.63
2022-10-21T01:44:04.455Z,10.95
2022-10-21T01:46:34.988Z,11.82
2022-10-21T01:49:07.249Z,9.73
2022-10-21T01:51:34.761Z,9.25
2022-10-21T01:54:04.524Z,11.93
2022-10-21T01:56:32.051Z,12.95
2022-10-21T01:58:59.515Z,8.40
2022-10-21T02:01:27.168Z,9.73
2022-10-21T02:03:59.240Z,9.55
2022-10-21T02:06:26.758Z,11.35
2022-10-21T02:08:54.671Z,10.07
2022-10-21T02:11:22.287Z,12.98
2022-10-21T02:13:54.751Z,17.83
2022-10-21T02:16:23.850Z,8.55
2022-10-21T02:18:51.347Z,8.73
2022-10-21T02:21:21.569Z,10.65
2022-10-21T02:23:52.333Z,12.02
2022-10-21T02:26:19.955Z,11.85
2022-10-21T02:28:47.606Z,14.02
2022-10-21T02:31:23.659Z,13.25
2022-10-21T02:33:56.723Z,10.93
2022-10-21T02:36:29.089Z,11.20
2022-10-21T02:38:58.986Z,10.63
2022-10-21T02:41:26.544Z,13.02
2022-10-21T02:43:55.971Z,12.73
2022-10-21T02:46:23.512Z,7.38
2022-10-21T02:48:50.919Z,8.85
2022-10-21T02:51:18.524Z,9.05
2022-10-21T02:53:47.527Z,10.25
2022-10-21T02:56:15.031Z,8.10
2022-10-21T02:58:42.624Z,10.00
2022-10-21T03:01:10.098Z,9.57
2022-10-21T03:03:37.606Z,12.65
2022-10-21T03:06:05.337Z,11.18
2022-10-21T03:08:32.945Z,7.18
2022-10-21T03:11:01.923Z,7.82
2022-10-21T03:13:29.510Z,7.45
2022-10-21T03:15:57.126Z,13.52
2022-10-21T03:18:24.641Z,12.38
2022-10-21T03:20:52.224Z,7.28
2022-10-21T03:23:19.747Z,14.25
2022-10-21T03:25:47.337Z,9.43
2022-10-21T03:28:16.429Z,13.80
2022-10-21T03:30:43.867Z,9.82
2022-10-21T03:33:11.279Z,11.70
2022-10-21T03:35:38.826Z,9.68
2022-10-21T03:38:06.318Z,9.73
2022-10-21T03:40:33.896Z,11.30
2022-10-21T03:43:01.456Z,13.18
2022-10-21T03:45:30.417Z,7.15
2022-10-21T03:47:57.990Z,7.25
2022-10-21T03:50:26.806Z,8.23
2022-10-21T03:52:55.789Z,8.25
2022-10-21T03:55:23.358Z,11.45
2022-10-21T03:57:50.911Z,8.68
2022-10-21T04:00:18.570Z,10.45
2022-10-21T04:02:47.663Z,9.05
2022-10-21T04:05:15.460Z,6.97
2022-10-21T04:07:43.130Z,8.70
2022-10-21T04:10:10.565Z,9.32
2022-10-21T04:12:38.289Z,12.05
2022-10-21T04:15:07.518Z,8.57
2022-10-21T04:17:35.033Z,9.98
2022-10-21T04:20:04.746Z,12.45
2022-10-21T04:22:32.311Z,8.48
2022-10-21T04:25:02.369Z,8.55
2022-10-21T04:27:32.380Z,8.85
2022-10-21T04:29:59.839Z,9.55
2022-10-21T04:32:27.288Z,12.55
2022-10-21T04:34:54.809Z,11.45
2022-10-21T04:37:23.812Z,9.90
2022-10-21T04:39:51.299Z,10.43
2022-10-21T04:42:18.926Z,7.25
2022-10-21T04:44:46.523Z,9.90
2022-10-21T04:47:14.086Z,8.88
2022-10-21T04:49:41.705Z,8.60
2022-10-21T04:52:09.341Z,12.18
2022-10-21T04:54:38.328Z,8.70
2022-10-21T04:57:05.895Z,9.02
2022-10-21T04:59:33.387Z,9.05
2022-10-21T05:04:29.673Z,10.63
2022-10-21T05:06:57.170Z,11.90
2022-10-21T05:09:24.747Z,8.95
2022-10-21T05:11:53.905Z,8.43
2022-10-21T05:14:22.764Z,9.13
2022-10-21T05:16:50.717Z,5.82
2022-10-21T05:19:18.386Z,12.32
2022-10-21T05:21:45.922Z,8.45
2022-10-21T05:24:13.449Z,10.80
2022-10-21T05:26:41.124Z,11.07
2022-10-21T05:29:10.133Z,8.98
2022-10-21T05:31:37.634Z,11.85
2022-10-21T05:34:05.147Z,12.82
2022-10-21T05:36:32.601Z,11.93
2022-10-21T05:39:00.179Z,9.70
2022-10-21T05:41:27.774Z,10.27
2022-10-21T05:43:55.345Z,13.70
2022-10-21T05:46:24.402Z,9.40
2022-10-21T05:48:52.021Z,12.27
2022-10-21T05:51:19.586Z,9.90
2022-10-21T05:53:47.024Z,8.32
2022-10-21T05:56:14.629Z,10.85
2022-10-21T05:58:42.316Z,12.15
2022-10-21T06:01:09.906Z,11.13
2022-10-21T06:03:39.061Z,8.27
2022-10-21T06:06:07.415Z,10.90
2022-10-21T06:08:36.004Z,10.23
2022-10-21T06:11:04.691Z,13.20
2022-10-21T06:13:32.245Z,12.20
2022-10-21T06:16:00.010Z,14.00
2022-10-21T06:18:27.692Z,9.43
2022-10-21T06:20:56.730Z,12.48
2022-10-21T06:23:24.295Z,15.98
2022-10-21T06:26:02.488Z,11.02
2022-10-21T06:28:30.757Z,7.95
2022-10-21T06:30:58.372Z,10.45
2022-10-21T06:33:27.149Z,11.80
2022-10-21T06:35:56.575Z,13.88
2022-10-21T06:38:24.139Z,12.73
2022-10-21T06:40:51.784Z,10.10
2022-10-21T06:43:19.620Z,14.68
2022-10-21T06:45:47.198Z,9.13
2022-10-21T06:48:14.725Z,10.70
2022-10-21T06:50:42.206Z,7.65
2022-10-21T06:53:11.294Z,10.73
2022-10-21T06:55:38.969Z,7.45
2022-10-21T06:58:06.664Z,14.40
2022-10-21T07:00:34.218Z,10.82
2022-10-21T07:03:01.840Z,9.60
2022-10-21T07:05:29.412Z,10.70
2022-10-21T07:07:57.647Z,10.10
2022-10-21T07:10:26.872Z,13.43
2022-10-21T07:12:54.365Z,10.00
2022-10-21T07:15:21.914Z,10.60
2022-10-21T07:17:49.594Z,8.45
2022-10-21T07:20:17.169Z,9.60
2022-10-21T07:22:44.699Z,11.80
2022-10-21T07:25:12.476Z,15.35
2022-10-21T07:27:43.553Z,11.27
2022-10-21T07:30:13.793Z,14.23
2022-10-21T07:32:41.250Z,12.65
2022-10-21T07:35:09.056Z,16.05
2022-10-21T07:37:37.065Z,14.82
2022-10-21T07:40:06.456Z,17.90
2022-10-21T07:42:34.045Z,13.45
2022-10-21T07:45:03.423Z,10.95
2022-10-21T07:47:30.995Z,6.93
2022-10-21T07:49:58.579Z,9.75
2022-10-21T07:52:26.066Z,9.80
2022-10-21T07:54:53.817Z,14.23
2022-10-21T07:57:21.390Z,9.80
2022-10-21T07:59:48.909Z,11.70
2022-10-21T08:02:17.958Z,11.52
2022-10-21T08:04:45.482Z,14.70
2022-10-21T08:07:13.952Z,11.57
2022-10-21T08:09:41.917Z,9.70
2022-10-21T08:12:12.895Z,10.43
2022-10-21T08:14:42.942Z,7.43
2022-10-21T08:17:10.567Z,8.65
2022-10-21T08:19:39.655Z,11.00
2022-10-21T08:22:07.249Z,12.63
2022-10-21T08:24:38.597Z,11.00
2022-10-21T08:27:09.292Z,12.93
2022-10-21T08:29:39.191Z,10.95
2022-10-21T08:32:07.983Z,13.07
2022-10-21T08:34:35.590Z,10.57
2022-10-21T08:37:04.627Z,7.28
2022-10-21T08:39:32.155Z,10.85
2022-10-21T08:42:06.610Z,11.13
2022-10-21T08:44:39.352Z,9.88
2022-10-21T08:47:11.648Z,9.73
2022-10-21T08:49:46.011Z,9.32
2022-10-21T08:52:16.377Z,10.45
2022-10-21T08:54:46.439Z,11.13
2022-10-21T08:57:14.073Z,12.45
2022-10-21T08:59:41.645Z,14.05
2022-10-21T09:02:28.903Z,10.80
2022-10-21T09:05:04.527Z,10.93
2022-10-21T09:07:37.768Z,11.18
2022-10-21T09:10:09.767Z,12.60
2022-10-21T09:12:40.998Z,13.98
2022-10-21T09:15:14.712Z,9.80
2022-10-21T09:17:54.873Z,8.43
2022-10-21T09:20:29.603Z,10.73
2022-10-21T09:23:03.097Z,16.48
2022-10-21T09:25:33.967Z,11.40
2022-10-21T09:28:02.518Z,10.10
2022-10-21T09:30:30.588Z,11.13
2022-10-21T09:32:59.435Z,15.15
2022-10-21T09:35:34.112Z,11.77
2022-10-21T09:38:06.035Z,11.10
2022-10-21T09:40:33.696Z,14.98
2022-10-21T09:43:01.281Z,15.60
2022-10-21T09:45:32.120Z,16.48
2022-10-21T09:48:01.147Z,16.35
2022-10-21T09:50:29.076Z,13.00
2022-10-21T09:53:05.322Z,13.63
2022-10-21T09:55:32.896Z,13.32
2022-10-21T09:58:01.105Z,9.48
2022-10-21T10:00:46.693Z,11.93
2022-10-21T10:03:29.370Z,11.90
2022-10-21T10:05:57.004Z,10.90
2022-10-21T10:08:35.681Z,12.13
2022-10-21T10:11:15.838Z,17.17
2022-10-21T10:13:45.225Z,8.20
2022-10-21T10:16:15.549Z,8.85
2022-10-21T10:18:43.266Z,9.45
2022-10-21T10:21:11.225Z,7.78
2022-10-21T10:23:48.475Z,10.05
2022-10-21T10:26:21.748Z,7.65
2022-10-21T10:28:54.732Z,8.38
2022-10-21T10:31:30.479Z,9.57
2022-10-21T10:33:59.799Z,6.85
2022-10-21T10:36:29.894Z,7.07
2022-10-21T10:38:59.507Z,7.05
2022-10-21T10:41:31.967Z,7.95
2022-10-21T10:43:59.615Z,8.75
2022-10-21T10:46:28.793Z,7.63
2022-10-21T10:48:57.818Z,9.25
2022-10-21T10:51:26.794Z,11.93
2022-10-21T10:54:03.849Z,9.52
2022-10-21T10:56:33.279Z,9.10
2022-10-21T10:59:14.120Z,8.75
2022-10-21T11:01:46.258Z,7.05
2022-10-21T11:04:16.515Z,8.85
2022-10-21T11:06:46.774Z,7.80
2022-10-21T11:09:16.012Z,9.02
2022-10-21T11:11:45.329Z,4.40
2022-10-21T11:14:15.431Z,10.52
2022-10-21T11:17:04.501Z,7.40
2022-10-21T11:19:36.220Z,5.47
2022-10-21T11:22:11.145Z,11.60
2022-10-21T11:24:54.646Z,11.73
2022-10-21T11:27:28.021Z,8.15
2022-10-21T11:30:01.665Z,6.88
2022-10-21T11:32:36.429Z,6.22
2022-10-21T11:35:14.581Z,5.45
2022-10-21T11:37:48.587Z,9.57
2022-10-21T11:40:29.743Z,6.05
2022-10-21T11:42:58.321Z,4.93
2022-10-21T11:45:38.211Z,7.70
2022-10-21T11:48:13.244Z,5.72
2022-10-21T11:50:44.894Z,6.25
2022-10-21T11:53:24.473Z,6.47
2022-10-21T11:55:59.662Z,7.20
2022-10-21T11:58:33.507Z,7.60
2022-10-21T12:01:10.642Z,6.57
2022-10-21T12:03:51.077Z,6.35
2022-10-21T12:06:26.353Z,6.82
2022-10-21T12:08:56.342Z,8.45
2022-10-21T12:11:26.885Z,6.78
2022-10-21T12:13:56.304Z,7.25
2022-10-21T12:16:24.786Z,4.47
2022-10-21T12:18:53.936Z,6.57
2022-10-21T12:21:23.654Z,4.80
2022-10-21T12:23:53.886Z,6.00
2022-10-21T12:26:24.787Z,7.13
2022-10-21T12:28:55.906Z,7.63
2022-10-21T12:31:29.682Z,7.13
2022-10-21T12:33:57.240Z,10.88
2022-10-21T12:36:44.634Z,7.40
2022-10-21T12:39:40.624Z,8.30
2022-10-21T12:42:13.491Z,7.70
2022-10-21T12:47:26.024Z,9.50
2022-10-21T12:50:08.175Z,6.75
2022-10-21T12:52:35.789Z,9.35
2022-10-21T12:55:04.592Z,15.35
2022-10-21T12:57:34.943Z,5.57
2022-10-21T13:00:16.796Z,6.22
2022-10-21T13:03:00.031Z,4.65
2022-10-21T13:05:58.050Z,6.65
2022-10-21T13:08:26.352Z,6.40
2022-10-21T13:11:12.625Z,6.25
2022-10-21T13:13:42.858Z,8.77
2022-10-21T13:16:34.715Z,6.57
2022-10-21T13:19:02.369Z,7.93
2022-10-21T13:21:39.873Z,7.25
2022-10-21T13:24:22.903Z,6.72
2022-10-21T13:26:52.201Z,5.55
2022-10-21T13:29:34.339Z,8.05
2022-10-21T13:32:29.985Z,6.75
2022-10-21T13:35:16.611Z,9.07
2022-10-21T13:37:50.603Z,5.57
2022-10-21T13:42:50.148Z,6.65
2022-10-21T13:45:24.422Z,7.78
2022-10-21T13:48:03.623Z,5.95
2022-10-21T13:50:32.931Z,8.05
2022-10-21T13:53:05.609Z,7.38
2022-10-21T13:55:33.233Z,8.07
2022-10-21T13:58:01.017Z,7.35
2022-10-21T14:00:31.664Z,7.88
2022-10-21T14:03:01.373Z,8.02
2022-10-21T14:05:36.977Z,6.65
2022-10-21T14:08:05.384Z,5.88
2022-10-21T14:10:33.019Z,7.35
2022-10-21T14:15:39.042Z,8.68
2022-10-21T14:18:06.674Z,7.38
2022-10-21T14:20:35.353Z,5.45
2022-10-21T14:23:03.753Z,8.57
2022-10-21T14:25:31.265Z,9.27
2022-10-21T14:27:59.139Z,8.93
2022-10-21T14:30:27.860Z,7.88
2022-10-21T14:32:57.135Z,7.50
2022-10-21T14:35:27.015Z,6.28
2022-10-21T14:37:55.462Z,5.50
2022-10-21T14:40:23.960Z,7.30
2022-10-21T14:42:53.343Z,6.25
2022-10-21T14:45:25.712Z,4.85
2022-10-21T14:47:56.114Z,5.90
2022-10-21T14:50:25.184Z,5.68
2022-10-21T14:52:52.989Z,8.15
2022-10-21T14:55:23.803Z,8.57
2022-10-21T14:57:52.011Z,5.68
2022-10-21T15:00:28.930Z,5.95
2022-10-21T15:02:58.255Z,5.68
2022-10-21T15:05:36.892Z,6.38
2022-10-21T15:08:27.360Z,7.50
2022-10-21T15:11:17.374Z,5.55
2022-10-21T15:14:04.781Z,6.32
2022-10-21T15:16:32.515Z,7.13
2022-10-21T15:19:00.115Z,7.03
2022-10-21T15:21:33.420Z,8.93
2022-10-21T15:24:01.058Z,6.78
2022-10-21T15:26:31.225Z,7.00
2022-10-21T15:28:58.807Z,6.60
2022-10-21T15:31:27.521Z,9.20
2022-10-21T15:33:56.535Z,8.13
2022-10-21T15:36:24.318Z,7.22
2022-10-21T15:38:53.265Z,7.72
2022-10-21T15:41:22.172Z,9.73
2022-10-21T15:43:57.291Z,5.90
2022-10-21T15:46:24.815Z,5.25
2022-10-21T15:48:52.494Z,6.47
2022-10-21T15:51:20.011Z,6.85
2022-10-21T15:53:47.556Z,7.78
2022-10-21T15:56:17.258Z,7.22
2022-10-21T15:58:44.879Z,8.52
2022-10-21T16:01:12.893Z,4.15
2022-10-21T16:03:40.487Z,9.73
2022-10-21T16:06:09.751Z,7.40
2022-10-21T16:08:37.455Z,8.43
2022-10-21T16:11:05.220Z,8.82
2022-10-21T16:13:34.312Z,5.65
2022-10-21T16:16:01.841Z,8.70
2022-10-21T16:18:29.499Z,7.68
2022-10-21T16:20:56.996Z,8.55
2022-10-21T16:23:24.503Z,8.00
2022-10-21T16:25:52.073Z,8.48
2022-10-21T16:28:19.670Z,8.15
2022-10-21T16:30:48.679Z,7.32
2022-10-21T16:33:16.195Z,11.05
2022-10-21T16:35:43.717Z,9.55
2022-10-21T16:38:11.318Z,6.50
2022-10-21T16:40:38.947Z,7.43
2022-10-21T16:43:06.547Z,6.90
2022-10-21T16:45:34.135Z,6.72
2022-10-21T16:48:04.329Z,6.80
2022-10-21T16:50:36.294Z,7.35
2022-10-21T16:53:03.831Z,4.38
2022-10-21T16:55:31.317Z,6.22
2022-10-21T16:57:58.966Z,5.38
2022-10-21T17:00:26.522Z,8.10
2022-10-21T17:02:54.149Z,5.78
2022-10-21T17:05:23.250Z,6.57
2022-10-21T17:07:50.837Z,5.68
2022-10-21T17:10:18.530Z,8.73
2022-10-21T17:12:46.081Z,7.07
2022-10-21T17:15:14.387Z,6.82
2022-10-21T17:17:42.343Z,8.38
2022-10-21T17:20:11.237Z,6.20
2022-10-21T17:22:40.318Z,6.88
2022-10-21T17:25:09.694Z,5.55
2022-10-21T17:27:37.492Z,6.80
2022-10-21T17:30:06.145Z,7.53
2022-10-21T17:32:33.773Z,5.00
2022-10-21T17:35:01.322Z,8.63
2022-10-21T17:37:28.819Z,8.65
2022-10-21T17:39:57.893Z,10.25
2022-10-21T17:42:25.434Z,8.57
2022-10-21T17:44:53.084Z,10.95
2022-10-21T17:47:20.717Z,8.85
2022-10-21T17:49:48.324Z,6.80
2022-10-21T17:52:15.907Z,8.63
2022-10-21T17:54:43.551Z,6.60
2022-10-21T17:57:12.560Z,8.15
2022-10-21T17:59:40.209Z,10.50
2022-10-21T18:02:07.716Z,8.02
2022-10-21T18:04:35.218Z,12.48
2022-10-21T18:07:05.918Z,15.90
2022-10-21T18:09:36.362Z,17.25
2022-10-21T18:12:04.603Z,15.50
2022-10-21T18:14:34.041Z,14.13
2022-10-21T18:17:01.942Z,14.75
2022-10-21T18:19:29.473Z,13.63
2022-10-21T18:21:57.112Z,17.92
2022-10-21T18:24:24.677Z,15.10
2022-10-21T18:26:52.167Z,16.10
2022-10-21T18:29:19.793Z,17.65
2022-10-21T18:31:48.833Z,16.98
2022-10-21T18:34:16.355Z,19.38
2022-10-21T18:36:43.941Z,18.75
2022-10-21T18:39:12.241Z,17.83
2022-10-21T18:41:39.890Z,18.50
2022-10-21T18:44:08.493Z,15.18
2022-10-21T18:46:36.228Z,16.35
2022-10-21T18:49:06.606Z,19.88
2022-10-21T18:51:34.187Z,17.25
2022-10-21T18:54:01.667Z,18.17
2022-10-21T18:56:29.232Z,16.48
2022-10-21T18:58:56.869Z,13.65
2022-10-21T19:01:25.180Z,16.40
2022-10-21T19:03:53.705Z,19.73
2022-10-21T19:06:34.489Z,20.27
2022-10-21T19:09:02.924Z,21.23
2022-10-21T19:11:30.657Z,16.88
2022-10-21T19:13:58.440Z,20.50
2022-10-21T19:16:26.061Z,18.27
2022-10-21T19:18:53.973Z,16.92
2022-10-21T19:21:22.281Z,17.60
2022-10-21T19:23:51.337Z,17.40
2022-10-21T19:26:21.065Z,21.75
2022-10-21T19:28:50.128Z,20.52
2022-10-21T19:31:17.718Z,18.90
2022-10-21T19:33:45.300Z,13.50
2022-10-21T19:36:12.874Z,14.60
2022-10-21T19:38:44.435Z,10.35
2022-10-21T19:41:15.836Z,14.93
2022-10-21T19:43:43.397Z,14.43
2022-10-21T19:46:11.940Z,15.80
2022-10-21T19:48:39.566Z,10.77
2022-10-21T19:51:08.003Z,10.80
2022-10-21T19:53:37.164Z,14.35
2022-10-21T19:56:05.290Z,11.93
2022-10-21T19:58:34.358Z,17.02
2022-10-21T20:01:02.144Z,11.73
2022-10-21T20:03:29.757Z,12.93
2022-10-21T20:05:57.314Z,11.95
2022-10-21T20:11:01.363Z,9.35
2022-10-21T20:13:29.022Z,16.58
2022-10-21T20:15:58.284Z,13.05
2022-10-21T20:18:27.333Z,13.70
2022-10-21T20:20:55.541Z,17.55
2022-10-21T20:23:23.446Z,16.48
2022-10-21T20:25:52.547Z,10.70
2022-10-21T20:28:20.070Z,12.13
2022-10-21T20:30:57.482Z,15.60
2022-10-21T20:33:25.033Z,19.67
2022-10-21T20:35:52.607Z,11.45
2022-10-21T20:38:20.151Z,12.93
2022-10-21T20:40:53.324Z,11.52
2022-10-21T20:43:20.798Z,12.68
2022-10-21T20:45:48.374Z,13.43
2022-10-21T20:48:17.326Z,16.50
2022-10-21T20:50:44.950Z,14.15
2022-10-21T20:53:12.515Z,20.65
2022-10-21T20:55:40.033Z,13.63
2022-10-21T20:58:07.645Z,19.38
2022-10-21T21:00:37.172Z,16.98
2022-10-21T21:03:04.787Z,18.00
2022-10-21T21:05:38.026Z,15.57
2022-10-21T21:08:06.680Z,20.63
2022-10-21T21:10:34.437Z,18.63
2022-10-21T21:13:02.091Z,18.45
2022-10-21T21:15:29.642Z,18.10
2022-10-21T21:17:57.233Z,17.70
2022-10-21T21:20:24.822Z,18.85
2022-10-21T21:22:53.810Z,15.05
2022-10-21T21:25:21.415Z,19.83
2022-10-21T21:27:48.991Z,16.98
2022-10-21T21:30:16.549Z,14.60
2022-10-21T21:32:44.483Z,19.77
2022-10-21T21:35:12.544Z,17.20
2022-10-21T21:37:40.089Z,14.48
2022-10-21T21:40:11.144Z,17.48
2022-10-21T21:42:39.054Z,17.65
2022-10-21T21:45:08.364Z,19.67
2022-10-21T21:47:35.893Z,15.63
2022-10-21T21:50:03.642Z,13.05
2022-10-21T21:52:31.094Z,15.25
2022-10-21T21:54:58.620Z,16.85
2022-10-21T21:57:28.522Z,17.02
2022-10-21T21:59:56.505Z,15.50
2022-10-21T22:02:23.976Z,18.83
2022-10-21T22:04:51.633Z,15.68
2022-10-21T22:07:19.144Z,12.60
2022-10-21T22:09:46.738Z,17.00
2022-10-21T22:12:14.768Z,12.23
2022-10-21T22:14:44.509Z,14.07
2022-10-21T22:17:12.071Z,13.90
2022-10-21T22:19:39.696Z,8.05
2022-10-21T22:22:07.323Z,16.48
2022-10-21T22:27:07.344Z,11.30
2022-10-21T22:29:34.954Z,14.20
2022-10-21T22:32:03.864Z,13.90
2022-10-21T22:34:31.406Z,12.38
2022-10-21T22:36:58.870Z,11.95
2022-10-21T22:39:26.563Z,11.35
2022-10-21T22:41:54.170Z,14.40
2022-10-21T22:44:22.389Z,11.82
2022-10-21T22:46:49.938Z,12.45
2022-10-21T22:49:18.984Z,8.77
2022-10-21T22:51:46.652Z,13.43
2022-10-21T22:54:29.664Z,10.02
2022-10-21T22:57:01.802Z,12.15
2022-10-21T22:59:29.258Z,12.82
2022-10-21T23:01:56.824Z,10.77
2022-10-21T23:04:25.946Z,8.10
2022-10-21T23:06:53.501Z,10.38
2022-10-21T23:09:21.142Z,11.60
2022-10-21T23:11:48.779Z,11.25
2022-10-21T23:14:16.374Z,7.90
2022-10-21T23:16:43.917Z,6.32
2022-10-21T23:21:41.499Z,11.90
2022-10-21T23:24:09.033Z,9.52
2022-10-21T23:26:36.624Z,9.07
2022-10-21T23:29:04.248Z,10.27
2022-10-21T23:31:31.882Z,12.85
2022-10-21T23:33:59.532Z,9.25
2022-10-21T23:36:27.154Z,10.38
2022-10-21T23:38:56.818Z,6.80
2022-10-21T23:41:24.363Z,8.35
2022-10-21T23:43:51.923Z,9.48
2022-10-21T23:46:19.637Z,11.45
2022-10-21T23:48:47.293Z,8.73
2022-10-21T23:51:14.926Z,7.00
2022-10-21T23:53:42.549Z,9.52
2022-10-21T23:56:11.668Z,8.52
2022-10-21T23:58:39.181Z,8.45
